createdAt,value
2023-08-21T00:00:37.070Z,27.78
2023-08-21T00:03:39.338Z,27.90
2023-08-21T00:06:41.579Z,27.98
2023-08-21T00:09:43.840Z,27.96
2023-08-21T00:12:46.084Z,27.93
2023-08-21T00:15:48.547Z,27.94
2023-08-21T00:18:50.777Z,27.88
2023-08-21T00:21:53.012Z,27.99
2023-08-21T00:24:55.192Z,27.99
2023-08-21T00:27:57.389Z,27.99
2023-08-21T00:31:06.615Z,28.01
2023-08-21T00:34:08.888Z,28.06
2023-08-21T00:37:12.145Z,28.01
2023-08-21T00:40:14.703Z,28.02
2023-08-21T00:43:17.000Z,28.01
2023-08-21T00:46:19.248Z,28.02
2023-08-21T00:49:22.039Z,28.03
2023-08-21T00:52:24.442Z,28.02
2023-08-21T00:55:26.764Z,27.88
2023-08-21T00:58:29.018Z,27.87
2023-08-21T01:01:31.532Z,27.85
2023-08-21T01:04:33.824Z,27.89
2023-08-21T01:07:41.913Z,27.95
2023-08-21T01:11:10.289Z,27.96
2023-08-21T01:14:24.510Z,27.92
2023-08-21T01:17:26.914Z,27.92
2023-08-21T01:20:29.518Z,27.99
2023-08-21T01:23:36.054Z,27.98
2023-08-21T01:26:38.228Z,28.00
2023-08-21T01:29:40.743Z,28.02
2023-08-21T01:33:07.024Z,27.97
2023-08-21T01:36:12.191Z,27.93
2023-08-21T01:39:14.624Z,27.92
2023-08-21T01:42:16.819Z,27.94
2023-08-21T01:45:19.126Z,27.85
2023-08-21T01:48:21.370Z,27.88
2023-08-21T01:51:23.708Z,27.85
2023-08-21T01:54:25.988Z,27.84
2023-08-21T01:57:28.207Z,27.82
2023-08-21T02:00:30.439Z,27.85
2023-08-21T02:03:32.746Z,27.71
2023-08-21T02:06:35.014Z,27.72
2023-08-21T02:09:37.208Z,27.64
2023-08-21T02:12:41.458Z,27.52
2023-08-21T02:15:44.880Z,27.54
2023-08-21T02:18:47.521Z,27.60
2023-08-21T02:21:49.725Z,27.59
2023-08-21T02:24:51.932Z,27.51
2023-08-21T02:27:57.556Z,27.49
2023-08-21T02:31:00.687Z,27.45
2023-08-21T02:34:02.924Z,27.46
2023-08-21T02:37:06.210Z,27.47
2023-08-21T02:40:09.766Z,27.35
2023-08-21T02:43:12.039Z,27.38
2023-08-21T02:46:14.405Z,27.37
2023-08-21T02:49:16.614Z,27.36
2023-08-21T02:52:19.134Z,27.24
2023-08-21T02:55:21.974Z,27.30
2023-08-21T02:58:24.297Z,27.20
2023-08-21T03:01:26.531Z,27.08
2023-08-21T03:04:28.757Z,27.11
2023-08-21T03:07:30.978Z,27.12
2023-08-21T03:10:34.961Z,27.11
2023-08-21T03:13:37.186Z,27.12
2023-08-21T03:16:39.443Z,27.13
2023-08-21T03:19:41.813Z,27.16
2023-08-21T03:22:44.339Z,27.16
2023-08-21T03:25:46.656Z,27.17
2023-08-21T03:28:48.945Z,27.16
2023-08-21T03:31:51.490Z,27.04
2023-08-21T03:34:53.732Z,27.06
2023-08-21T03:37:56.343Z,27.05
2023-08-21T03:41:00.038Z,26.98
2023-08-21T03:44:02.482Z,26.91
2023-08-21T03:47:04.800Z,26.92
2023-08-21T03:50:10.670Z,26.92
2023-08-21T03:53:13.162Z,26.99
2023-08-21T03:56:15.412Z,26.92
2023-08-21T03:59:17.653Z,26.99
2023-08-21T04:02:19.838Z,27.06
2023-08-21T04:05:22.071Z,26.96
2023-08-21T04:08:24.321Z,27.01
2023-08-21T04:11:26.923Z,27.15
2023-08-21T04:14:29.116Z,27.45
2023-08-21T04:17:31.362Z,27.63
2023-08-21T04:20:33.684Z,27.82
2023-08-21T04:23:35.895Z,28.03
2023-08-21T04:26:38.157Z,28.06
2023-08-21T04:29:40.745Z,28.16
2023-08-21T04:32:43.437Z,28.34
2023-08-21T04:35:45.681Z,28.32
2023-08-21T04:38:48.104Z,28.27
2023-08-21T04:41:50.805Z,28.24
2023-08-21T04:44:54.576Z,28.40
2023-08-21T04:47:58.560Z,28.33
2023-08-21T04:51:01.510Z,28.23
2023-08-21T04:54:03.954Z,28.40
2023-08-21T04:57:07.029Z,28.43
2023-08-21T05:00:10.892Z,28.52
2023-08-21T05:03:16.510Z,28.53
2023-08-21T05:06:21.043Z,28.49
2023-08-21T05:09:23.412Z,28.52
2023-08-21T05:12:27.099Z,28.42
2023-08-21T05:15:29.310Z,28.44
2023-08-21T05:18:31.869Z,28.53
2023-08-21T05:21:34.151Z,28.58
2023-08-21T05:24:36.497Z,28.61
2023-08-21T05:27:41.208Z,28.51
2023-08-21T05:30:43.377Z,28.42
2023-08-21T05:33:46.337Z,28.48
2023-08-21T05:36:49.979Z,28.49
2023-08-21T05:39:52.452Z,28.47
2023-08-21T05:42:54.697Z,28.50
2023-08-21T05:45:57.200Z,28.53
2023-08-21T05:48:59.914Z,28.47
2023-08-21T05:52:02.195Z,28.56
2023-08-21T05:55:05.866Z,28.48
2023-08-21T05:58:08.694Z,28.50
2023-08-21T06:01:10.988Z,28.52
2023-08-21T06:04:13.472Z,28.50
2023-08-21T06:07:18.508Z,28.56
2023-08-21T06:10:20.840Z,28.59
2023-08-21T06:13:23.200Z,28.66
2023-08-21T06:16:29.292Z,28.64
2023-08-21T06:19:31.560Z,28.70
2023-08-21T06:22:33.900Z,28.77
2023-08-21T06:25:36.226Z,28.83
2023-08-21T06:28:38.715Z,28.95
2023-08-21T06:31:40.994Z,28.82
2023-08-21T06:34:43.215Z,29.01
2023-08-21T06:37:45.441Z,29.04
2023-08-21T06:40:47.717Z,29.15
2023-08-21T06:43:49.954Z,29.20
2023-08-21T06:46:54.362Z,29.19
2023-08-21T06:49:56.660Z,29.19
2023-08-21T06:52:58.848Z,29.37
2023-08-21T06:56:01.327Z,29.37
2023-08-21T06:59:03.694Z,29.41
2023-08-21T07:02:06.701Z,29.46
2023-08-21T07:05:11.958Z,29.57
2023-08-21T07:08:14.932Z,29.65
2023-08-21T07:11:18.382Z,29.68
2023-08-21T07:14:20.824Z,29.75
2023-08-21T07:17:23.040Z,29.81
2023-08-21T07:20:25.300Z,29.77
2023-08-21T07:23:27.574Z,29.89
2023-08-21T07:26:30.010Z,30.02
2023-08-21T07:29:32.226Z,29.99
2023-08-21T07:32:34.500Z,30.01
2023-08-21T07:35:37.191Z,29.97
2023-08-21T07:38:46.258Z,30.10
2023-08-21T07:51:27.114Z,30.34
2023-08-21T07:54:29.408Z,30.34
2023-08-21T07:57:31.759Z,30.35
2023-08-21T08:00:34.063Z,30.44
2023-08-21T08:03:36.586Z,30.48
2023-08-21T08:06:39.357Z,30.57
2023-08-21T08:09:44.455Z,30.65
2023-08-21T08:12:46.688Z,30.67
2023-08-21T08:15:49.038Z,30.67
2023-08-21T08:18:51.387Z,30.73
2023-08-21T08:21:53.735Z,30.77
2023-08-21T08:24:55.976Z,30.78
2023-08-21T08:27:58.246Z,30.80
2023-08-21T08:31:01.522Z,30.86
2023-08-21T08:34:03.814Z,30.97
2023-08-21T08:37:06.010Z,31.01
2023-08-21T08:40:08.984Z,30.99
2023-08-21T08:43:13.122Z,30.99
2023-08-21T08:46:16.058Z,31.04
2023-08-21T08:49:18.696Z,31.09
2023-08-21T08:52:21.157Z,31.11
2023-08-21T08:55:23.668Z,31.18
2023-08-21T08:58:25.905Z,31.24
2023-08-21T09:01:28.390Z,31.28
2023-08-21T09:04:30.801Z,31.30
2023-08-21T09:07:33.165Z,31.32
2023-08-21T09:10:37.543Z,31.38
2023-08-21T09:13:40.152Z,31.47
2023-08-21T09:17:02.087Z,31.47
2023-08-21T09:20:11.410Z,31.45
2023-08-21T09:23:17.905Z,31.51
2023-08-21T09:26:25.929Z,31.49
2023-08-21T09:29:28.413Z,31.55
2023-08-21T09:32:30.669Z,31.58
2023-08-21T09:35:34.185Z,31.65
2023-08-21T09:38:36.735Z,31.67
2023-08-21T09:41:39.957Z,31.67
2023-08-21T09:44:44.296Z,31.70
2023-08-21T09:47:46.833Z,31.70
2023-08-21T09:50:49.134Z,31.73
2023-08-21T09:53:51.711Z,31.73
2023-08-21T09:56:54.436Z,31.73
2023-08-21T09:59:57.270Z,31.78
2023-08-21T10:03:08.639Z,31.78
2023-08-21T10:06:11.769Z,31.79
2023-08-21T10:09:14.181Z,31.84
2023-08-21T10:12:17.651Z,31.81
2023-08-21T10:15:20.366Z,31.87
2023-08-21T10:18:31.271Z,31.87
2023-08-21T10:21:37.461Z,31.89
2023-08-21T10:24:39.789Z,31.89
2023-08-21T10:27:43.748Z,31.89
2023-08-21T10:30:48.697Z,31.92
2023-08-21T10:33:50.962Z,31.90
2023-08-21T10:37:06.955Z,31.99
2023-08-21T10:40:13.345Z,31.95
2023-08-21T10:43:47.968Z,32.05
2023-08-21T10:46:53.988Z,32.06
2023-08-21T10:50:01.441Z,32.09
2023-08-21T10:53:03.849Z,32.14
2023-08-21T10:56:11.294Z,32.13
2023-08-21T10:59:51.659Z,32.01
2023-08-21T11:02:56.790Z,32.09
2023-08-21T11:06:08.218Z,32.22
2023-08-21T11:09:14.248Z,32.16
2023-08-21T11:12:19.225Z,32.20
2023-08-21T11:15:23.748Z,32.37
2023-08-21T11:18:38.972Z,32.34
2023-08-21T11:21:41.225Z,32.42
2023-08-21T11:24:44.419Z,32.49
2023-08-21T11:27:46.840Z,32.53
2023-08-21T11:30:49.779Z,32.57
2023-08-21T11:33:52.441Z,32.57
2023-08-21T11:36:54.766Z,32.63
2023-08-21T11:39:59.208Z,32.69
2023-08-21T11:43:02.590Z,32.69
2023-08-21T11:46:06.309Z,32.72
2023-08-21T11:49:08.570Z,32.84
2023-08-21T11:52:12.458Z,32.85
2023-08-21T11:55:14.635Z,32.83
2023-08-21T11:58:19.314Z,32.97
2023-08-21T12:01:22.235Z,33.02
2023-08-21T12:04:25.691Z,33.06
2023-08-21T12:07:27.947Z,33.09
2023-08-21T12:10:30.683Z,33.19
2023-08-21T12:13:35.512Z,33.22
2023-08-21T12:16:38.664Z,33.26
2023-08-21T12:19:41.053Z,33.28
2023-08-21T12:22:45.894Z,33.29
2023-08-21T12:25:48.110Z,33.36
2023-08-21T12:28:51.118Z,33.42
2023-08-21T12:31:53.490Z,33.42
2023-08-21T12:34:55.736Z,33.43
2023-08-21T12:37:59.422Z,33.52
2023-08-21T12:41:03.841Z,33.56
2023-08-21T12:44:09.701Z,33.59
2023-08-21T12:47:11.916Z,33.66
2023-08-21T12:50:14.609Z,33.68
2023-08-21T12:53:16.988Z,33.70
2023-08-21T12:56:19.417Z,33.80
2023-08-21T12:59:21.669Z,33.78
2023-08-21T13:02:24.438Z,33.83
2023-08-21T13:05:27.324Z,33.88
2023-08-21T13:08:29.497Z,33.96
2023-08-21T13:11:31.858Z,33.97
2023-08-21T13:14:34.050Z,34.00
2023-08-21T13:17:36.829Z,34.03
2023-08-21T13:20:39.176Z,34.00
2023-08-21T13:23:41.383Z,34.12
2023-08-21T13:26:43.659Z,34.18
2023-08-21T13:29:47.412Z,34.19
2023-08-21T13:32:49.772Z,34.15
2023-08-21T13:35:52.051Z,34.24
2023-08-21T13:38:56.474Z,34.24
2023-08-21T13:41:58.717Z,34.34
2023-08-21T13:45:00.942Z,34.39
2023-08-21T13:48:05.178Z,34.40
2023-08-21T13:51:07.506Z,34.43
2023-08-21T13:54:09.754Z,34.46
2023-08-21T13:57:12.042Z,34.55
2023-08-21T14:00:14.753Z,34.60
2023-08-21T14:03:17.081Z,34.62
2023-08-21T14:06:19.436Z,34.67
2023-08-21T14:09:21.690Z,34.60
2023-08-21T14:12:23.936Z,34.76
2023-08-21T14:15:26.283Z,34.81
2023-08-21T14:18:28.560Z,34.96
2023-08-21T14:21:31.016Z,35.06
2023-08-21T14:24:33.671Z,35.26
2023-08-21T14:27:36.266Z,35.45
2023-08-21T14:30:38.938Z,35.52
2023-08-21T14:33:41.176Z,35.59
2023-08-21T14:36:43.681Z,35.69
2023-08-21T14:39:45.868Z,35.76
2023-08-21T14:42:48.066Z,35.79
2023-08-21T14:45:50.373Z,35.83
2023-08-21T14:48:55.685Z,35.82
2023-08-21T14:51:57.896Z,35.77
2023-08-21T14:55:00.211Z,35.77
2023-08-21T14:58:08.204Z,35.73
2023-08-21T15:01:11.723Z,35.73
2023-08-21T15:04:14.010Z,35.69
2023-08-21T15:07:16.248Z,35.55
2023-08-21T15:10:18.484Z,35.47
2023-08-21T15:13:20.799Z,35.44
2023-08-21T15:16:23.122Z,35.42
2023-08-21T15:19:25.451Z,35.39
2023-08-21T15:22:27.736Z,35.37
2023-08-21T15:25:30.007Z,35.34
2023-08-21T15:28:32.208Z,35.39
2023-08-21T15:31:34.529Z,35.31
2023-08-21T15:34:36.765Z,35.32
2023-08-21T15:37:38.983Z,35.24
2023-08-21T15:40:44.973Z,35.25
2023-08-21T15:43:47.487Z,35.23
2023-08-21T15:46:50.054Z,35.25
2023-08-21T15:49:52.326Z,35.19
2023-08-21T15:52:54.579Z,35.18
2023-08-21T15:55:56.792Z,35.19
2023-08-21T15:58:59.028Z,35.11
2023-08-21T16:02:01.246Z,35.15
2023-08-21T16:05:05.282Z,35.03
2023-08-21T16:08:07.669Z,35.11
2023-08-21T16:11:10.028Z,35.11
2023-08-21T16:14:14.200Z,35.04
2023-08-21T16:17:17.866Z,35.07
2023-08-21T16:20:20.293Z,34.95
2023-08-21T16:23:22.552Z,35.02
2023-08-21T16:26:25.045Z,35.03
2023-08-21T16:29:27.340Z,34.97
2023-08-21T16:32:29.618Z,34.93
2023-08-21T16:35:31.819Z,34.91
2023-08-21T16:38:34.382Z,34.85
2023-08-21T16:41:36.596Z,34.78
2023-08-21T16:44:38.818Z,34.81
2023-08-21T16:47:41.407Z,34.77
2023-08-21T16:50:43.691Z,34.72
2023-08-21T16:53:45.965Z,34.66
2023-08-21T16:56:48.187Z,34.55
2023-08-21T16:59:50.620Z,34.52
2023-08-21T17:02:53.118Z,34.35
2023-08-21T17:05:55.408Z,34.27
2023-08-21T17:08:57.694Z,34.19
2023-08-21T17:11:59.893Z,34.04
2023-08-21T17:15:04.300Z,33.94
2023-08-21T17:18:06.934Z,33.91
2023-08-21T17:21:09.147Z,33.77
2023-08-21T17:24:11.341Z,33.71
2023-08-21T17:27:13.533Z,33.63
2023-08-21T17:30:15.919Z,33.53
2023-08-21T17:33:18.145Z,33.47
2023-08-21T17:36:20.372Z,33.34
2023-08-21T17:39:22.622Z,33.26
2023-08-21T17:42:24.869Z,33.14
2023-08-21T17:45:27.019Z,33.03
2023-08-21T17:48:29.426Z,33.02
2023-08-21T17:51:31.636Z,32.98
2023-08-21T17:54:33.856Z,32.91
2023-08-21T17:57:37.880Z,32.88
2023-08-21T18:00:40.898Z,32.82
2023-08-21T18:03:43.411Z,32.74
2023-08-21T18:06:45.642Z,32.61
2023-08-21T18:09:47.824Z,32.56
2023-08-21T18:12:50.045Z,32.48
2023-08-21T18:15:52.396Z,32.42
2023-08-21T18:18:54.593Z,32.28
2023-08-21T18:21:56.817Z,32.20
2023-08-21T18:24:59.030Z,32.15
2023-08-21T18:28:01.271Z,32.12
2023-08-21T18:31:04.050Z,31.96
2023-08-21T18:34:06.342Z,31.93
2023-08-21T18:37:09.679Z,31.85
2023-08-21T18:40:12.414Z,31.82
2023-08-21T18:43:14.691Z,31.76
2023-08-21T18:46:17.856Z,31.71
2023-08-21T18:49:20.083Z,31.68
2023-08-21T18:52:22.296Z,31.60
2023-08-21T18:55:24.479Z,31.48
2023-08-21T18:58:26.676Z,31.46
2023-08-21T19:01:29.023Z,31.41
2023-08-21T19:04:31.873Z,31.39
2023-08-21T19:07:34.000Z,31.38
2023-08-21T19:10:36.631Z,31.32
2023-08-21T19:13:39.015Z,31.29
2023-08-21T19:16:41.487Z,31.18
2023-08-21T19:19:43.839Z,31.18
2023-08-21T19:22:46.047Z,31.20
2023-08-21T19:25:48.231Z,31.20
2023-08-21T19:28:50.526Z,31.16
2023-08-21T19:31:52.757Z,31.08
2023-08-21T19:34:56.761Z,30.98
2023-08-21T19:37:58.997Z,30.90
2023-08-21T19:41:01.212Z,30.93
2023-08-21T19:44:03.622Z,30.87
2023-08-21T19:47:06.028Z,30.81
2023-08-21T19:50:08.633Z,30.84
2023-08-21T19:53:10.856Z,30.82
2023-08-21T19:56:13.089Z,30.72
2023-08-21T19:59:15.324Z,30.74
2023-08-21T20:02:17.596Z,30.74
2023-08-21T20:05:19.861Z,30.68
2023-08-21T20:08:24.620Z,30.65
2023-08-21T20:11:28.484Z,30.52
2023-08-21T20:14:30.754Z,30.52
2023-08-21T20:17:33.657Z,30.50
2023-08-21T20:20:35.905Z,30.47
2023-08-21T20:23:38.159Z,30.44
2023-08-21T20:26:40.351Z,30.38
2023-08-21T20:29:42.588Z,30.37
2023-08-21T20:32:45.152Z,30.33
2023-08-21T20:35:47.450Z,30.34
2023-08-21T20:38:50.326Z,30.36
2023-08-21T20:41:52.538Z,30.36
2023-08-21T20:44:54.848Z,30.31
2023-08-21T20:47:57.145Z,30.28
2023-08-21T20:50:59.548Z,30.22
2023-08-21T20:54:01.822Z,30.15
2023-08-21T20:57:04.455Z,30.10
2023-08-21T21:00:10.014Z,30.05
2023-08-21T21:03:12.286Z,29.95
2023-08-21T21:06:14.556Z,29.96
2023-08-21T21:09:16.740Z,29.94
2023-08-21T21:12:19.111Z,29.89
2023-08-21T21:15:21.325Z,29.81
2023-08-21T21:18:23.512Z,29.84
2023-08-21T21:21:25.903Z,29.74
2023-08-21T21:24:29.665Z,29.70
2023-08-21T21:27:32.190Z,29.70
2023-08-21T21:30:34.461Z,29.65
2023-08-21T21:33:36.687Z,29.67
2023-08-21T21:36:43.476Z,29.62
2023-08-21T21:39:45.706Z,29.70
2023-08-21T21:42:47.898Z,29.68
2023-08-21T21:45:59.577Z,29.66
2023-08-21T21:49:03.697Z,29.63
2023-08-21T21:52:05.943Z,29.60
2023-08-21T21:55:09.329Z,29.55
2023-08-21T21:58:11.569Z,29.51
2023-08-21T22:01:13.934Z,29.43
2023-08-21T22:04:16.186Z,29.49
2023-08-21T22:07:18.461Z,29.47
2023-08-21T22:10:20.677Z,29.37
2023-08-21T22:13:23.032Z,29.39
2023-08-21T22:16:25.310Z,29.37
2023-08-21T22:19:27.543Z,29.32
2023-08-21T22:22:29.763Z,29.27
2023-08-21T22:25:32.183Z,29.28
2023-08-21T22:28:34.342Z,29.27
2023-08-21T22:31:42.534Z,29.19
2023-08-21T22:34:46.570Z,29.19
2023-08-21T22:37:48.822Z,29.19
2023-08-21T22:40:51.032Z,29.13
2023-08-21T22:43:53.251Z,29.17
2023-08-21T22:46:55.470Z,29.14
2023-08-21T22:50:00.187Z,29.10
2023-08-21T22:53:05.240Z,28.99
2023-08-21T22:56:07.836Z,28.96
2023-08-21T22:59:11.042Z,29.02
2023-08-21T23:02:13.325Z,29.04
2023-08-21T23:05:15.695Z,29.00
2023-08-21T23:08:17.918Z,29.02
2023-08-21T23:11:20.349Z,29.00
2023-08-21T23:14:22.604Z,28.96
2023-08-21T23:17:24.941Z,28.81
2023-08-21T23:20:27.206Z,28.80
2023-08-21T23:23:29.858Z,28.85
2023-08-21T23:26:32.027Z,28.75
2023-08-21T23:29:34.642Z,28.78
2023-08-21T23:32:36.832Z,28.84
2023-08-21T23:35:39.783Z,28.85
2023-08-21T23:38:42.674Z,28.79
2023-08-21T23:41:45.611Z,28.73
2023-08-21T23:44:47.806Z,28.69
2023-08-21T23:47:50.245Z,28.63
2023-08-21T23:50:52.544Z,28.66
2023-08-21T23:53:54.802Z,28.58
2023-08-21T23:56:56.972Z,28.64
2023-08-21T23:59:59.284Z,28.55
